createdAt,value
2022-11-09T00:01:03.753Z,22.45
2022-11-09T00:03:31.032Z,21.15
2022-11-09T00:05:59.759Z,20.13
2022-11-09T00:08:27.076Z,20.38
2022-11-09T00:10:54.272Z,22.13
2022-11-09T00:13:22.657Z,23.55
2022-11-09T00:15:50.235Z,20.20
2022-11-09T00:18:17.186Z,21.25
2022-11-09T00:20:47.754Z,22.30
2022-11-09T00:23:17.141Z,22.35
2022-11-09T00:25:44.681Z,21.30
2022-11-09T00:28:11.794Z,22.90
2022-11-09T00:30:38.881Z,21.80
2022-11-09T00:33:05.878Z,22.35
2022-11-09T00:35:33.252Z,23.20
2022-11-09T00:38:00.358Z,20.00
2022-11-09T00:40:27.397Z,21.60
2022-11-09T00:42:54.421Z,23.13
2022-11-09T00:45:21.396Z,22.30
2022-11-09T00:47:48.405Z,22.45
2022-11-09T00:50:15.484Z,21.95
2022-11-09T00:52:43.171Z,22.85
2022-11-09T00:55:10.205Z,21.55
2022-11-09T00:57:37.159Z,23.45
2022-11-09T01:00:04.889Z,23.35
2022-11-09T01:02:31.822Z,23.45
2022-11-09T01:04:59.434Z,22.42
2022-11-09T01:07:26.487Z,22.70
2022-11-09T01:09:53.487Z,23.50
2022-11-09T01:12:20.445Z,24.50
2022-11-09T01:14:47.529Z,23.42
2022-11-09T01:17:14.527Z,23.58
2022-11-09T01:19:41.495Z,22.30
2022-11-09T01:22:08.555Z,22.58
2022-11-09T01:24:35.510Z,21.60
2022-11-09T01:27:02.486Z,22.98
2022-11-09T01:29:29.610Z,22.58
2022-11-09T01:31:56.618Z,22.23
2022-11-09T01:34:24.361Z,22.65
2022-11-09T01:36:52.554Z,21.60
2022-11-09T01:39:20.156Z,21.33
2022-11-09T01:41:47.838Z,21.20
2022-11-09T01:44:19.617Z,20.98
2022-11-09T01:46:57.642Z,20.23
2022-11-09T01:49:30.298Z,19.95
2022-11-09T01:52:03.249Z,19.70
2022-11-09T01:54:34.978Z,19.13
2022-11-09T01:57:08.202Z,20.50
2022-11-09T01:59:39.522Z,19.38
2022-11-09T02:02:06.700Z,18.92
2022-11-09T02:04:52.476Z,19.50
2022-11-09T02:07:21.662Z,20.75
2022-11-09T02:10:07.359Z,17.65
2022-11-09T02:12:35.770Z,20.00
2022-11-09T02:15:08.768Z,21.10
2022-11-09T02:17:36.671Z,19.58
2022-11-09T02:20:14.412Z,19.85
2022-11-09T02:22:42.434Z,21.10
2022-11-09T02:25:15.282Z,20.35
2022-11-09T02:27:44.466Z,23.67
2022-11-09T02:30:12.511Z,22.40
2022-11-09T02:32:39.599Z,21.17
2022-11-09T02:35:06.760Z,21.60
2022-11-09T02:37:47.529Z,25.10
2022-11-09T02:40:33.235Z,22.30
2022-11-09T02:43:04.989Z,20.85
2022-11-09T02:45:31.996Z,22.48
2022-11-09T02:47:58.989Z,22.67
2022-11-09T02:50:26.561Z,23.25
2022-11-09T02:52:53.536Z,22.50
2022-11-09T02:55:20.509Z,22.70
2022-11-09T02:57:47.577Z,23.27
2022-11-09T03:00:15.054Z,21.80
2022-11-09T03:02:42.443Z,23.05
2022-11-09T03:05:09.545Z,21.88
2022-11-09T03:07:36.578Z,22.50
2022-11-09T03:10:04.010Z,22.70
2022-11-09T03:12:31.022Z,22.50
2022-11-09T03:15:02.180Z,22.98
2022-11-09T03:17:29.757Z,22.10
2022-11-09T03:19:56.730Z,23.88
2022-11-09T03:22:23.766Z,23.73
2022-11-09T03:24:50.805Z,24.05
2022-11-09T03:27:17.962Z,22.70
2022-11-09T03:29:44.896Z,25.02
2022-11-09T03:32:12.227Z,22.67
2022-11-09T03:34:39.193Z,25.20
2022-11-09T03:37:06.198Z,21.52
2022-11-09T03:39:33.651Z,23.45
2022-11-09T03:42:00.650Z,21.30
2022-11-09T03:44:27.713Z,21.92
2022-11-09T03:46:54.692Z,22.58
2022-11-09T03:49:24.112Z,22.25
2022-11-09T03:51:51.772Z,22.95
2022-11-09T03:54:18.907Z,22.27
2022-11-09T03:56:46.048Z,22.75
2022-11-09T03:59:13.106Z,21.50
2022-11-09T04:01:40.152Z,18.52
2022-11-09T04:04:07.396Z,19.80
2022-11-09T04:06:34.414Z,21.35
2022-11-09T04:09:01.448Z,20.20
2022-11-09T04:11:28.614Z,18.50
2022-11-09T04:13:55.570Z,20.30
2022-11-09T04:16:22.540Z,19.48
2022-11-09T04:18:49.478Z,19.67
2022-11-09T04:21:19.158Z,18.20
2022-11-09T04:23:50.002Z,19.88
2022-11-09T04:26:16.956Z,16.27
2022-11-09T04:28:43.882Z,17.83
2022-11-09T04:31:10.955Z,19.77
2022-11-09T04:33:37.930Z,17.38
2022-11-09T04:36:05.299Z,18.50
2022-11-09T04:38:32.608Z,18.52
2022-11-09T04:41:04.150Z,18.00
2022-11-09T04:43:31.307Z,17.30
2022-11-09T04:46:02.326Z,17.40
2022-11-09T04:48:30.123Z,16.17
2022-11-09T04:51:01.655Z,15.68
2022-11-09T04:53:29.007Z,16.75
2022-11-09T04:55:56.851Z,16.98
2022-11-09T04:58:25.213Z,16.42
2022-11-09T05:00:53.802Z,16.38
2022-11-09T05:03:21.411Z,17.40
2022-11-09T05:05:48.860Z,17.40
2022-11-09T05:08:15.890Z,17.40
2022-11-09T05:10:42.864Z,17.25
2022-11-09T05:13:12.106Z,18.02
2022-11-09T05:15:39.505Z,16.35
2022-11-09T05:18:07.695Z,17.65
2022-11-09T05:20:36.221Z,16.27
2022-11-09T05:23:22.609Z,16.83
2022-11-09T05:25:50.010Z,17.23
2022-11-09T05:28:17.099Z,17.90
2022-11-09T05:30:44.119Z,17.10
2022-11-09T05:33:11.152Z,16.67
2022-11-09T05:35:38.057Z,16.85
2022-11-09T05:38:05.193Z,16.45
2022-11-09T05:40:33.558Z,16.00
2022-11-09T05:43:00.596Z,17.55
2022-11-09T05:45:41.939Z,17.95
2022-11-09T05:48:14.184Z,17.42
2022-11-09T05:50:42.671Z,16.83
2022-11-09T05:53:12.028Z,16.73
2022-11-09T05:55:39.665Z,15.82
2022-11-09T05:58:06.783Z,17.73
2022-11-09T06:00:34.039Z,18.13
2022-11-09T06:03:08.254Z,18.33
2022-11-09T06:05:40.868Z,19.20
2022-11-09T06:08:13.353Z,18.25
2022-11-09T06:10:42.065Z,17.95
2022-11-09T06:13:09.067Z,16.95
2022-11-09T06:15:36.167Z,19.60
2022-11-09T06:18:03.517Z,18.08
2022-11-09T06:20:31.146Z,18.15
2022-11-09T06:23:03.640Z,17.75
2022-11-09T06:25:33.567Z,16.48
2022-11-09T06:28:01.823Z,17.63
2022-11-09T06:30:29.107Z,18.00
2022-11-09T06:33:03.404Z,18.75
2022-11-09T06:35:30.774Z,16.60
2022-11-09T06:37:59.409Z,18.50
2022-11-09T06:40:27.037Z,17.52
2022-11-09T06:42:58.815Z,17.98
2022-11-09T06:45:26.792Z,17.85
2022-11-09T06:48:03.139Z,19.60
2022-11-09T06:50:32.841Z,18.48
2022-11-09T06:53:02.419Z,16.83
2022-11-09T06:55:30.670Z,17.85
2022-11-09T06:57:58.635Z,17.77
2022-11-09T07:00:27.207Z,18.50
2022-11-09T07:02:54.431Z,17.55
2022-11-09T07:05:21.961Z,18.42
2022-11-09T07:07:49.097Z,17.98
2022-11-09T07:10:16.330Z,17.35
2022-11-09T07:12:43.294Z,18.42
2022-11-09T07:15:11.975Z,20.70
2022-11-09T07:17:40.382Z,18.23
2022-11-09T07:20:11.480Z,17.90
2022-11-09T07:22:40.015Z,17.50
2022-11-09T07:25:08.269Z,17.35
2022-11-09T07:27:35.522Z,18.17
2022-11-09T07:30:03.165Z,20.52
2022-11-09T07:33:06.817Z,24.38
2022-11-09T07:35:19.970Z,22.33
2022-11-09T07:37:46.933Z,24.35
2022-11-09T07:40:14.433Z,24.58
2022-11-09T07:42:41.479Z,24.02
2022-11-09T07:45:08.689Z,23.42
2022-11-09T07:47:35.975Z,23.25
2022-11-09T07:50:03.862Z,23.83
2022-11-09T07:52:30.847Z,23.58
2022-11-09T07:54:57.819Z,22.85
2022-11-09T07:57:24.823Z,21.75
2022-11-09T07:59:53.823Z,23.25
2022-11-09T08:02:20.813Z,20.83
2022-11-09T08:04:47.815Z,21.13
2022-11-09T08:07:14.955Z,21.27
2022-11-09T08:09:42.015Z,20.63
2022-11-09T08:12:08.958Z,22.80
2022-11-09T08:14:35.959Z,20.00
2022-11-09T08:17:02.930Z,20.13
2022-11-09T08:19:29.902Z,19.27
2022-11-09T08:21:58.009Z,20.67
2022-11-09T08:24:25.042Z,18.67
2022-11-09T08:26:52.094Z,21.33
2022-11-09T08:29:19.079Z,19.92
2022-11-09T08:31:46.010Z,22.15
2022-11-09T08:34:15.288Z,20.52
2022-11-09T08:36:42.402Z,19.17
2022-11-09T08:39:10.400Z,18.70
2022-11-09T08:41:38.086Z,19.05
2022-11-09T08:44:05.298Z,19.40
2022-11-09T08:46:33.941Z,20.00
2022-11-09T08:49:04.349Z,19.40
2022-11-09T08:51:31.489Z,19.67
2022-11-09T08:53:58.459Z,18.35
2022-11-09T08:56:25.818Z,17.90
2022-11-09T08:58:52.797Z,19.42
2022-11-09T09:01:19.890Z,21.08
2022-11-09T09:03:47.058Z,18.98
2022-11-09T09:06:13.994Z,20.63
2022-11-09T09:08:40.965Z,18.52
2022-11-09T09:11:07.933Z,19.75
2022-11-09T09:13:37.860Z,20.30
2022-11-09T09:16:15.248Z,18.63
2022-11-09T09:18:42.644Z,20.00
2022-11-09T09:21:10.934Z,19.50
2022-11-09T09:23:37.923Z,19.50
2022-11-09T09:26:05.073Z,18.52
2022-11-09T09:28:32.652Z,18.38
2022-11-09T09:31:00.868Z,19.17
2022-11-09T09:33:28.381Z,19.52
2022-11-09T09:35:59.742Z,17.85
2022-11-09T09:38:27.815Z,17.50
2022-11-09T09:40:59.329Z,17.67
2022-11-09T09:43:43.463Z,17.85
2022-11-09T09:46:37.772Z,18.08
2022-11-09T09:49:11.721Z,17.92
2022-11-09T09:51:50.135Z,18.77
2022-11-09T09:54:24.305Z,18.55
2022-11-09T09:56:54.403Z,18.02
2022-11-09T09:59:41.557Z,17.35
2022-11-09T10:02:18.724Z,18.67
2022-11-09T10:04:45.847Z,18.88
2022-11-09T10:07:16.020Z,19.75
2022-11-09T10:09:58.050Z,17.98
2022-11-09T10:12:59.320Z,18.65
2022-11-09T10:15:59.901Z,18.00
2022-11-09T10:18:45.661Z,19.40
2022-11-09T10:21:31.451Z,17.92
2022-11-09T10:24:10.598Z,19.60
2022-11-09T10:26:47.971Z,17.80
2022-11-09T10:29:20.789Z,17.42
2022-11-09T10:31:50.566Z,18.77
2022-11-09T10:34:31.496Z,18.92
2022-11-09T10:37:13.055Z,17.75
2022-11-09T10:39:47.535Z,18.23
2022-11-09T10:42:14.579Z,17.65
2022-11-09T10:44:41.706Z,17.80
2022-11-09T10:47:12.571Z,19.63
2022-11-09T10:49:40.796Z,18.70
2022-11-09T10:52:46.980Z,16.95
2022-11-09T10:55:28.232Z,17.58
2022-11-09T10:58:21.269Z,18.80
2022-11-09T11:01:23.065Z,17.52
2022-11-09T11:03:52.512Z,16.33
2022-11-09T11:06:28.117Z,17.08
2022-11-09T11:09:15.405Z,17.73
2022-11-09T11:11:42.593Z,17.02
2022-11-09T11:14:26.273Z,15.82
2022-11-09T11:16:53.730Z,16.80
2022-11-09T11:19:32.947Z,17.73
2022-11-09T11:22:11.620Z,18.75
2022-11-09T11:24:55.146Z,17.92
2022-11-09T11:27:39.390Z,17.90
2022-11-09T11:30:19.074Z,15.20
2022-11-09T11:32:50.415Z,16.05
2022-11-09T11:35:30.068Z,16.40
2022-11-09T11:38:18.528Z,15.38
2022-11-09T11:41:15.286Z,18.08
2022-11-09T11:44:08.871Z,14.50
2022-11-09T11:46:46.019Z,14.60
2022-11-09T11:49:19.397Z,15.07
2022-11-09T11:52:11.074Z,16.10
2022-11-09T11:54:59.271Z,14.40
2022-11-09T11:58:00.314Z,13.68
2022-11-09T12:00:27.712Z,13.77
2022-11-09T12:03:22.757Z,13.15
2022-11-09T12:06:08.494Z,12.32
2022-11-09T12:08:57.306Z,12.48
2022-11-09T12:11:45.570Z,13.68
2022-11-09T12:14:50.245Z,12.85
2022-11-09T12:17:19.986Z,12.18
2022-11-09T12:20:29.259Z,11.88
2022-11-09T12:23:04.769Z,13.95
2022-11-09T12:26:27.103Z,11.52
2022-11-09T12:29:15.568Z,12.73
2022-11-09T12:32:17.402Z,12.45
2022-11-09T12:34:57.857Z,13.10
2022-11-09T12:37:32.440Z,12.93
2022-11-09T12:40:14.024Z,14.05
2022-11-09T12:42:49.621Z,12.90
2022-11-09T12:45:27.601Z,12.88
2022-11-09T12:47:58.169Z,12.15
2022-11-09T12:50:27.148Z,13.55
2022-11-09T12:52:54.814Z,13.85
2022-11-09T12:55:43.570Z,12.52
2022-11-09T12:58:25.375Z,18.02
2022-11-09T13:00:55.747Z,15.02
2022-11-09T13:03:30.935Z,14.38
2022-11-09T13:06:17.373Z,13.18
2022-11-09T13:09:04.828Z,11.90
2022-11-09T13:11:52.269Z,11.23
2022-11-09T13:14:35.230Z,13.20
2022-11-09T13:17:24.877Z,13.73
2022-11-09T13:19:56.696Z,14.18
2022-11-09T13:22:23.590Z,12.02
2022-11-09T13:25:02.349Z,13.70
2022-11-09T13:27:46.565Z,13.77
2022-11-09T13:30:25.872Z,14.15
2022-11-09T13:33:09.663Z,12.85
2022-11-09T13:35:42.797Z,14.07
2022-11-09T13:38:21.747Z,13.95
2022-11-09T13:40:50.465Z,12.90
2022-11-09T13:43:27.481Z,14.52
2022-11-09T13:46:03.353Z,12.98
2022-11-09T13:48:44.260Z,14.25
2022-11-09T13:51:11.595Z,12.70
2022-11-09T13:53:38.658Z,13.18
2022-11-09T13:56:26.094Z,14.80
2022-11-09T13:59:16.484Z,14.27
2022-11-09T14:01:58.843Z,13.77
2022-11-09T14:04:31.118Z,14.48
2022-11-09T14:07:22.438Z,13.40
2022-11-09T14:10:02.888Z,13.35
2022-11-09T14:12:42.426Z,13.75
2022-11-09T14:15:30.565Z,14.60
2022-11-09T14:18:19.776Z,14.32
2022-11-09T14:21:11.155Z,13.77
2022-11-09T14:23:38.324Z,12.05
2022-11-09T14:26:19.695Z,13.27
2022-11-09T14:28:46.852Z,14.10
2022-11-09T14:31:24.229Z,14.23
2022-11-09T14:34:03.086Z,15.38
2022-11-09T14:36:33.595Z,15.25
2022-11-09T14:39:04.034Z,14.68
2022-11-09T14:41:31.563Z,13.45
2022-11-09T14:44:00.629Z,14.02
2022-11-09T14:46:30.818Z,14.50
2022-11-09T14:49:10.981Z,15.80
2022-11-09T14:51:40.549Z,13.73
2022-11-09T14:54:12.819Z,14.52
2022-11-09T14:56:41.683Z,15.55
2022-11-09T14:59:13.017Z,16.48
2022-11-09T15:01:40.717Z,16.20
2022-11-09T15:04:11.209Z,15.90
2022-11-09T15:07:00.664Z,16.38
2022-11-09T15:09:45.053Z,20.70
2022-11-09T15:12:16.742Z,21.00
2022-11-09T15:14:54.509Z,18.40
2022-11-09T15:17:32.949Z,19.23
2022-11-09T15:20:05.144Z,16.55
2022-11-09T15:22:47.685Z,18.60
2022-11-09T15:25:44.897Z,19.58
2022-11-09T15:28:12.060Z,18.02
2022-11-09T15:30:41.940Z,18.25
2022-11-09T15:33:21.567Z,18.95
2022-11-09T15:35:56.162Z,18.52
2022-11-09T15:38:41.665Z,18.05
2022-11-09T15:41:14.997Z,16.80
2022-11-09T15:43:43.555Z,16.77
2022-11-09T15:46:17.678Z,15.90
2022-11-09T15:48:46.292Z,16.80
2022-11-09T15:51:14.992Z,16.25
2022-11-09T15:53:42.505Z,15.88
2022-11-09T15:56:23.720Z,15.20
2022-11-09T15:58:52.597Z,14.20
2022-11-09T16:01:20.207Z,16.67
2022-11-09T16:03:47.954Z,17.08
2022-11-09T16:06:23.930Z,16.00
2022-11-09T16:08:53.414Z,16.10
2022-11-09T16:11:20.768Z,16.52
2022-11-09T16:13:48.783Z,17.52
2022-11-09T16:16:17.575Z,17.45
2022-11-09T16:18:44.721Z,18.48
2022-11-09T16:21:17.464Z,17.10
2022-11-09T16:23:44.788Z,18.65
2022-11-09T16:26:14.710Z,18.48
2022-11-09T16:28:44.080Z,16.77
2022-11-09T16:31:13.073Z,17.52
2022-11-09T16:33:41.174Z,17.83
2022-11-09T16:36:18.181Z,18.58
2022-11-09T16:38:49.579Z,19.92
2022-11-09T16:41:17.840Z,17.95
2022-11-09T16:43:47.752Z,19.77
2022-11-09T16:46:23.964Z,20.65
2022-11-09T16:48:51.815Z,20.35
2022-11-09T16:51:19.662Z,22.85
2022-11-09T16:53:47.001Z,19.98
2022-11-09T16:56:14.696Z,23.02
2022-11-09T16:58:41.932Z,22.95
2022-11-09T17:01:12.928Z,22.13
2022-11-09T17:03:42.313Z,25.48
2022-11-09T17:06:11.845Z,31.00
2022-11-09T17:08:41.497Z,31.13
2022-11-09T17:11:11.697Z,33.28
2022-11-09T17:13:39.575Z,27.77
2022-11-09T17:16:09.783Z,31.10
2022-11-09T17:18:40.463Z,29.10
2022-11-09T17:21:14.681Z,26.60
2022-11-09T17:23:43.438Z,29.27
2022-11-09T17:26:11.584Z,27.80
2022-11-09T17:28:42.881Z,28.65
2022-11-09T17:31:19.850Z,29.05
2022-11-09T17:33:47.401Z,26.35
2022-11-09T17:36:20.012Z,25.55
2022-11-09T17:38:58.962Z,23.95
2022-11-09T17:41:26.270Z,21.63
2022-11-09T17:43:53.607Z,23.17
2022-11-09T17:46:23.761Z,26.05
2022-11-09T17:48:52.473Z,24.42
2022-11-09T17:51:21.213Z,24.83
2022-11-09T17:53:48.785Z,23.95
2022-11-09T17:56:16.512Z,23.20
2022-11-09T17:58:45.991Z,22.77
2022-11-09T18:01:16.610Z,22.95
2022-11-09T18:03:46.446Z,22.30
2022-11-09T18:06:18.256Z,21.90
2022-11-09T18:08:58.286Z,22.50
2022-11-09T18:11:34.695Z,21.27
2022-11-09T18:14:07.364Z,22.55
2022-11-09T18:16:35.226Z,22.13
2022-11-09T18:19:04.216Z,21.10
2022-11-09T18:21:33.695Z,18.35
2022-11-09T18:24:06.419Z,19.80
2022-11-09T18:26:34.777Z,26.83
2022-11-09T18:29:02.782Z,33.65
2022-11-09T18:31:30.516Z,31.92
2022-11-09T18:34:00.943Z,30.42
2022-11-09T18:36:28.995Z,26.67
2022-11-09T18:38:56.932Z,24.92
2022-11-09T18:41:26.005Z,27.75
2022-11-09T18:43:54.612Z,25.75
2022-11-09T18:46:22.968Z,25.90
2022-11-09T18:48:54.882Z,26.13
2022-11-09T18:51:22.603Z,28.75
2022-11-09T18:53:50.636Z,34.50
2022-11-09T18:56:25.578Z,32.60
2022-11-09T18:58:55.845Z,34.03
2022-11-09T19:01:27.512Z,30.42
2022-11-09T19:03:59.378Z,31.02
2022-11-09T19:06:28.801Z,28.98
2022-11-09T19:09:14.702Z,30.27
2022-11-09T19:11:42.304Z,28.65
2022-11-09T19:14:11.671Z,26.60
2022-11-09T19:16:39.514Z,26.80
2022-11-09T19:19:07.517Z,26.67
2022-11-09T19:21:45.667Z,27.05
2022-11-09T19:24:17.790Z,26.90
2022-11-09T19:26:46.039Z,25.00
2022-11-09T19:29:15.518Z,26.45
2022-11-09T19:31:43.632Z,26.70
2022-11-09T19:34:17.355Z,25.27
2022-11-09T19:36:46.327Z,26.65
2022-11-09T19:39:15.960Z,28.08
2022-11-09T19:41:44.554Z,25.30
2022-11-09T19:44:18.159Z,26.02
2022-11-09T19:46:47.043Z,27.35
2022-11-09T19:49:15.410Z,28.70
2022-11-09T19:51:43.783Z,27.35
2022-11-09T19:54:13.342Z,27.80
2022-11-09T19:56:41.199Z,26.40
2022-11-09T19:59:14.396Z,27.48
2022-11-09T20:01:42.621Z,27.00
2022-11-09T20:04:11.124Z,31.15
2022-11-09T20:06:41.792Z,26.75
2022-11-09T20:09:09.706Z,28.75
2022-11-09T20:12:12.347Z,28.60
2022-11-09T20:14:39.963Z,30.83
2022-11-09T20:17:20.899Z,31.42
2022-11-09T20:19:49.121Z,30.58
2022-11-09T20:22:16.458Z,28.98
2022-11-09T20:24:44.020Z,29.50
2022-11-09T20:27:11.759Z,25.35
2022-11-09T20:29:39.339Z,28.40
2022-11-09T20:32:12.057Z,29.05
2022-11-09T20:34:39.957Z,28.33
2022-11-09T20:37:07.859Z,27.75
2022-11-09T20:39:37.236Z,26.20
2022-11-09T20:42:09.564Z,26.20
2022-11-09T20:44:37.330Z,27.10
2022-11-09T20:47:06.095Z,27.60
2022-11-09T20:49:33.254Z,24.65
2022-11-09T20:52:01.588Z,28.40
2022-11-09T20:54:29.393Z,20.52
2022-11-09T20:56:56.997Z,17.73
2022-11-09T20:59:24.251Z,14.98
2022-11-09T21:01:51.635Z,12.05
2022-11-09T21:04:19.058Z,13.32
2022-11-09T21:06:47.735Z,13.32
2022-11-09T21:09:14.942Z,14.93
2022-11-09T21:12:00.950Z,12.25
2022-11-09T21:14:28.520Z,14.02
2022-11-09T21:16:55.769Z,14.77
2022-11-09T21:19:23.579Z,14.30
2022-11-09T21:21:52.186Z,14.30
2022-11-09T21:24:37.910Z,14.07
2022-11-09T21:27:24.042Z,14.68
2022-11-09T21:29:51.351Z,13.25
2022-11-09T21:32:20.318Z,14.15
2022-11-09T21:34:47.855Z,12.60
2022-11-09T21:37:15.407Z,13.10
2022-11-09T21:39:44.674Z,13.38
2022-11-09T21:42:14.712Z,14.10
2022-11-09T21:44:44.655Z,14.90
2022-11-09T21:47:15.633Z,15.80
2022-11-09T21:49:42.878Z,19.95
2022-11-09T21:52:09.868Z,16.00
2022-11-09T21:54:36.887Z,15.45
2022-11-09T21:57:04.002Z,17.52
2022-11-09T21:59:30.998Z,15.25
2022-11-09T22:01:58.121Z,15.07
2022-11-09T22:04:25.214Z,15.85
2022-11-09T22:06:52.234Z,16.70
2022-11-09T22:09:19.333Z,16.40
2022-11-09T22:12:05.335Z,15.88
2022-11-09T22:14:51.065Z,20.92
2022-11-09T22:17:18.061Z,19.05
2022-11-09T22:20:03.717Z,18.33
2022-11-09T22:22:31.685Z,17.80
2022-11-09T22:24:58.898Z,16.85
2022-11-09T22:27:26.069Z,18.48
2022-11-09T22:29:53.078Z,16.70
2022-11-09T22:32:20.200Z,17.42
2022-11-09T22:34:47.304Z,15.43
2022-11-09T22:37:14.669Z,16.65
2022-11-09T22:39:45.987Z,16.00
2022-11-09T22:42:14.294Z,14.60
2022-11-09T22:44:41.320Z,13.55
2022-11-09T22:47:08.325Z,13.18
2022-11-09T22:49:36.937Z,12.48
2022-11-09T22:52:05.191Z,11.63
2022-11-09T22:54:32.279Z,11.52
2022-11-09T22:56:59.225Z,12.48
2022-11-09T22:59:26.266Z,12.85
2022-11-09T23:01:53.305Z,13.15
2022-11-09T23:04:20.342Z,13.65
2022-11-09T23:06:47.359Z,12.77
2022-11-09T23:09:14.502Z,12.18
2022-11-09T23:11:41.576Z,12.65
2022-11-09T23:14:08.720Z,13.02
2022-11-09T23:16:35.746Z,11.23
2022-11-09T23:19:02.748Z,12.50
2022-11-09T23:21:35.293Z,12.82
2022-11-09T23:24:05.741Z,12.23
2022-11-09T23:26:34.243Z,11.57
2022-11-09T23:29:02.009Z,12.98
2022-11-09T23:31:29.032Z,11.52
2022-11-09T23:33:58.018Z,10.68
2022-11-09T23:36:26.741Z,12.15
2022-11-09T23:38:54.391Z,11.30
2022-11-09T23:41:22.048Z,12.00
2022-11-09T23:43:49.824Z,10.45
2022-11-09T23:46:18.224Z,10.85
2022-11-09T23:48:45.481Z,11.15
2022-11-09T23:51:12.842Z,12.57
2022-11-09T23:53:40.281Z,11.90
2022-11-09T23:56:09.960Z,11.15
2022-11-09T23:58:38.128Z,11.30
